createdAt,value
2018-08-10T00:02:28.609Z,59.90
2018-08-10T00:05:00.484Z,59.90
2018-08-10T00:07:32.424Z,59.80
2018-08-10T00:10:04.296Z,59.80
2018-08-10T00:12:36.169Z,59.50
2018-08-10T00:15:09.284Z,59.50
2018-08-10T00:17:41.347Z,59.50
2018-08-10T00:20:15.596Z,59.30
2018-08-10T00:22:47.542Z,59.20
2018-08-10T00:25:19.764Z,58.80
2018-08-10T00:27:51.721Z,58.70
2018-08-10T00:30:23.669Z,58.60
2018-08-10T00:32:55.464Z,58.50
2018-08-10T00:35:27.349Z,58.40
2018-08-10T00:37:59.055Z,58.40
2018-08-10T00:40:30.945Z,58.40
2018-08-10T00:43:02.714Z,58.40
2018-08-10T00:45:34.447Z,58.40
2018-08-10T00:48:06.392Z,58.40
2018-08-10T00:50:38.076Z,58.50
2018-08-10T00:53:09.941Z,58.50
2018-08-10T00:55:41.808Z,58.60
2018-08-10T00:58:13.741Z,58.60
2018-08-10T01:00:45.440Z,58.80
2018-08-10T01:03:17.187Z,58.80
2018-08-10T01:05:49.049Z,58.70
2018-08-10T01:08:20.793Z,58.80
2018-08-10T01:10:52.569Z,58.90
2018-08-10T01:13:24.568Z,58.90
2018-08-10T01:15:56.360Z,58.90
2018-08-10T01:18:28.156Z,58.90
2018-08-10T01:21:00.106Z,59.00
2018-08-10T01:23:32.055Z,59.00
2018-08-10T01:26:04.060Z,59.10
2018-08-10T01:28:35.711Z,59.00
2018-08-10T01:31:07.553Z,59.00
2018-08-10T01:33:39.499Z,59.10
2018-08-10T01:36:11.254Z,59.10
2018-08-10T01:38:43.024Z,59.10
2018-08-10T01:41:14.984Z,59.10
2018-08-10T01:43:46.846Z,59.20
2018-08-10T01:46:18.641Z,59.10
2018-08-10T01:48:50.550Z,59.20
2018-08-10T01:51:22.416Z,59.10
2018-08-10T01:53:54.226Z,59.00
2018-08-10T01:56:25.953Z,58.70
2018-08-10T01:58:57.794Z,58.70
2018-08-10T02:01:29.812Z,58.70
2018-08-10T02:04:01.554Z,58.70
2018-08-10T02:06:33.484Z,58.70
2018-08-10T02:09:07.025Z,58.90
2018-08-10T02:11:38.770Z,58.90
2018-08-10T02:14:10.623Z,58.90
2018-08-10T02:16:42.462Z,58.90
2018-08-10T02:19:14.376Z,58.80
2018-08-10T02:21:46.001Z,58.80
2018-08-10T02:24:17.792Z,58.90
2018-08-10T02:26:49.602Z,58.90
2018-08-10T02:29:21.424Z,59.00
2018-08-10T02:31:53.249Z,58.80
2018-08-10T02:34:25.270Z,59.00
2018-08-10T02:36:57.256Z,59.00
2018-08-10T02:39:29.153Z,58.80
2018-08-10T02:42:01.030Z,59.00
2018-08-10T02:44:32.758Z,58.90
2018-08-10T02:47:04.611Z,58.90
2018-08-10T02:49:36.392Z,58.80
2018-08-10T02:52:08.154Z,58.90
2018-08-10T02:54:40.025Z,59.00
2018-08-10T02:57:11.745Z,59.10
2018-08-10T02:59:44.089Z,59.10
2018-08-10T03:02:16.631Z,59.10
2018-08-10T03:04:48.392Z,59.20
2018-08-10T03:07:20.117Z,59.00
2018-08-10T03:09:51.956Z,58.90
2018-08-10T03:12:23.758Z,58.30
2018-08-10T03:14:55.730Z,58.30
2018-08-10T03:17:27.582Z,57.90
2018-08-10T03:19:59.353Z,57.50
2018-08-10T03:22:31.300Z,57.30
2018-08-10T03:25:03.138Z,57.30
2018-08-10T03:27:35.038Z,57.10
2018-08-10T03:30:07.974Z,56.80
2018-08-10T03:32:39.920Z,56.80
2018-08-10T03:35:11.642Z,56.80
2018-08-10T03:37:43.481Z,56.70
2018-08-10T03:40:16.453Z,56.70
2018-08-10T03:42:48.125Z,56.60
2018-08-10T03:45:19.962Z,56.60
2018-08-10T03:47:51.576Z,56.80
2018-08-10T03:50:23.408Z,56.80
2018-08-10T03:52:55.239Z,57.00
2018-08-10T03:55:27.021Z,57.00
2018-08-10T03:57:58.786Z,57.20
2018-08-10T04:00:30.611Z,57.40
2018-08-10T04:03:02.530Z,57.60
2018-08-10T04:05:34.287Z,57.60
2018-08-10T04:08:06.098Z,57.20
2018-08-10T04:10:37.786Z,57.70
2018-08-10T04:13:09.681Z,58.00
2018-08-10T04:15:41.296Z,58.20
2018-08-10T04:18:13.241Z,58.30
2018-08-10T04:20:45.149Z,58.50
2018-08-10T04:23:17.016Z,58.40
2018-08-10T04:25:48.790Z,58.50
2018-08-10T04:28:20.787Z,58.70
2018-08-10T04:30:52.800Z,58.80
2018-08-10T04:33:24.420Z,58.90
2018-08-10T04:35:56.341Z,59.00
2018-08-10T04:38:28.254Z,59.10
2018-08-10T04:41:00.050Z,59.40
2018-08-10T04:43:31.880Z,59.50
2018-08-10T04:46:03.742Z,59.80
2018-08-10T04:48:35.694Z,60.00
2018-08-10T04:51:07.545Z,60.10
2018-08-10T04:53:39.428Z,60.30
2018-08-10T04:56:11.285Z,60.50
2018-08-10T04:58:43.273Z,60.60
2018-08-10T05:01:14.992Z,60.70
2018-08-10T05:03:46.902Z,60.80
2018-08-10T05:06:18.709Z,60.90
2018-08-10T05:08:50.502Z,61.10
2018-08-10T05:11:22.265Z,61.20
2018-08-10T05:13:53.887Z,61.30
2018-08-10T05:16:25.768Z,61.50
2018-08-10T05:18:57.549Z,61.30
2018-08-10T05:21:29.438Z,61.50
2018-08-10T05:24:01.244Z,61.50
2018-08-10T05:26:33.089Z,61.80
2018-08-10T05:29:05.041Z,61.70
2018-08-10T05:31:37.107Z,61.70
2018-08-10T05:34:08.866Z,61.80
2018-08-10T05:36:40.675Z,61.70
2018-08-10T05:39:13.172Z,61.50
2018-08-10T05:41:44.820Z,61.30
2018-08-10T05:44:16.446Z,61.10
2018-08-10T05:46:48.181Z,61.80
2018-08-10T05:49:19.939Z,60.90
2018-08-10T05:51:51.821Z,61.00
2018-08-10T05:54:23.465Z,60.70
2018-08-10T05:56:55.217Z,60.60
2018-08-10T05:59:26.994Z,60.40
2018-08-10T06:01:58.757Z,60.40
2018-08-10T06:04:30.498Z,59.80
2018-08-10T06:07:02.353Z,59.90
2018-08-10T06:09:34.029Z,59.70
2018-08-10T06:12:05.978Z,59.50
2018-08-10T06:14:37.884Z,59.60
2018-08-10T06:17:09.600Z,59.10
2018-08-10T06:19:41.423Z,59.10
2018-08-10T06:22:13.304Z,59.10
2018-08-10T06:24:45.244Z,59.00
2018-08-10T06:27:16.941Z,58.90
2018-08-10T06:29:48.716Z,58.90
2018-08-10T06:32:20.470Z,58.60
2018-08-10T06:34:52.253Z,58.80
2018-08-10T06:37:24.065Z,58.50
2018-08-10T06:39:55.998Z,58.60
2018-08-10T06:42:27.851Z,58.50
2018-08-10T06:44:59.615Z,58.30
2018-08-10T06:47:31.363Z,57.40
2018-08-10T06:50:03.103Z,56.90
2018-08-10T06:52:34.833Z,56.80
2018-08-10T06:55:06.800Z,56.60
2018-08-10T06:57:38.569Z,55.70
2018-08-10T07:00:10.361Z,55.30
2018-08-10T07:02:42.275Z,55.00
2018-08-10T07:05:14.228Z,54.50
2018-08-10T07:07:45.939Z,54.50
2018-08-10T07:10:17.676Z,54.50
2018-08-10T07:12:49.414Z,53.50
2018-08-10T07:15:21.095Z,53.50
2018-08-10T07:17:52.947Z,53.70
2018-08-10T07:20:24.817Z,53.50
2018-08-10T07:22:56.649Z,53.60
2018-08-10T07:25:28.466Z,53.80
2018-08-10T07:28:00.387Z,53.60
2018-08-10T07:30:32.238Z,54.20
2018-08-10T07:33:04.110Z,53.60
2018-08-10T07:35:35.772Z,53.70
2018-08-10T07:38:07.617Z,53.90
2018-08-10T07:40:39.412Z,54.30
2018-08-10T07:43:11.054Z,53.80
2018-08-10T07:45:42.790Z,54.30
2018-08-10T07:48:14.656Z,54.90
2018-08-10T07:50:46.271Z,55.50
2018-08-10T07:53:17.964Z,55.80
2018-08-10T07:55:49.958Z,56.00
2018-08-10T07:58:21.737Z,56.00
2018-08-10T08:00:53.574Z,55.70
2018-08-10T08:03:25.338Z,55.70
2018-08-10T08:05:57.200Z,55.60
2018-08-10T08:08:29.117Z,55.40
2018-08-10T08:11:00.997Z,55.50
2018-08-10T08:13:32.874Z,55.50
2018-08-10T08:16:04.870Z,55.00
2018-08-10T08:18:37.210Z,55.70
2018-08-10T08:21:12.241Z,55.00
2018-08-10T08:23:46.118Z,54.10
2018-08-10T08:26:17.907Z,53.70
2018-08-10T08:28:49.909Z,54.80
2018-08-10T08:31:21.783Z,54.90
2018-08-10T08:34:06.926Z,54.70
2018-08-10T08:37:11.478Z,54.70
2018-08-10T08:40:50.083Z,54.10
2018-08-10T08:44:41.530Z,53.20
2018-08-10T08:47:13.497Z,51.80
2018-08-10T08:49:45.109Z,52.40
2018-08-10T08:52:17.018Z,52.50
2018-08-10T08:55:44.114Z,52.20
2018-08-10T08:58:16.046Z,52.10
2018-08-10T09:00:47.889Z,52.20
2018-08-10T09:03:36.081Z,52.60
2018-08-10T09:06:08.262Z,52.30
2018-08-10T09:08:43.593Z,52.10
2018-08-10T09:11:15.265Z,50.90
2018-08-10T09:14:54.749Z,51.50
2018-08-10T09:17:26.835Z,51.30
2018-08-10T09:19:58.704Z,51.60
2018-08-10T09:22:30.509Z,50.80
2018-08-10T09:25:02.404Z,50.70
2018-08-10T09:27:34.126Z,49.90
2018-08-10T09:30:07.903Z,50.80
2018-08-10T09:32:39.990Z,49.70
2018-08-10T09:35:12.962Z,49.70
2018-08-10T09:37:44.986Z,49.50
2018-08-10T09:40:18.551Z,48.50
2018-08-10T09:42:50.364Z,47.60
2018-08-10T09:45:22.234Z,47.50
2018-08-10T09:47:54.046Z,47.10
2018-08-10T09:50:25.928Z,46.70
2018-08-10T09:53:00.349Z,46.00
2018-08-10T09:55:37.469Z,46.40
2018-08-10T09:58:20.053Z,46.80
2018-08-10T10:00:56.531Z,46.40
2018-08-10T10:03:28.324Z,46.20
2018-08-10T10:06:01.045Z,43.90
2018-08-10T10:08:32.826Z,43.80
2018-08-10T10:11:04.733Z,42.60
2018-08-10T10:13:36.619Z,42.50
2018-08-10T10:16:08.556Z,43.10
2018-08-10T10:18:40.566Z,43.20
2018-08-10T10:21:12.317Z,43.50
2018-08-10T10:23:44.262Z,44.00
2018-08-10T10:26:16.329Z,43.90
2018-08-10T10:28:48.265Z,43.80
2018-08-10T10:31:20.182Z,42.80
2018-08-10T10:33:51.808Z,43.20
2018-08-10T10:36:23.568Z,43.80
2018-08-10T10:38:55.505Z,44.30
2018-08-10T10:41:27.224Z,43.40
2018-08-10T10:43:58.937Z,42.60
2018-08-10T10:46:30.736Z,41.90
2018-08-10T10:49:02.362Z,42.00
2018-08-10T10:51:34.305Z,42.60
2018-08-10T10:54:06.269Z,42.10
2018-08-10T10:56:38.123Z,42.10
2018-08-10T10:59:09.914Z,42.20
2018-08-10T11:01:41.744Z,42.50
2018-08-10T11:04:13.426Z,42.10
2018-08-10T11:06:45.185Z,42.50
2018-08-10T11:09:17.024Z,42.60
2018-08-10T11:11:49.039Z,42.80
2018-08-10T11:14:20.758Z,43.00
2018-08-10T11:16:52.532Z,42.40
2018-08-10T11:19:24.423Z,42.60
2018-08-10T11:21:56.141Z,42.60
2018-08-10T11:24:27.813Z,42.50
2018-08-10T11:26:59.753Z,42.30
2018-08-10T11:29:31.534Z,41.80
2018-08-10T11:32:03.304Z,41.70
2018-08-10T11:34:35.021Z,42.10
2018-08-10T11:37:06.801Z,40.30
2018-08-10T11:39:38.665Z,39.80
2018-08-10T11:42:10.525Z,39.70
2018-08-10T11:44:42.172Z,39.00
2018-08-10T11:47:13.998Z,37.20
2018-08-10T11:49:45.880Z,37.40
2018-08-10T11:52:17.846Z,37.20
2018-08-10T11:54:49.693Z,36.80
2018-08-10T11:57:21.401Z,36.40
2018-08-10T11:59:53.450Z,35.70
2018-08-10T12:02:25.388Z,35.80
2018-08-10T12:04:57.160Z,35.80
2018-08-10T12:07:29.050Z,35.40
2018-08-10T12:10:00.768Z,35.90
2018-08-10T12:12:32.640Z,35.50
2018-08-10T12:15:04.554Z,35.20
2018-08-10T12:17:36.419Z,34.90
2018-08-10T12:20:08.346Z,35.80
2018-08-10T12:22:41.115Z,34.70
2018-08-10T12:25:13.006Z,34.70
2018-08-10T12:27:44.873Z,35.40
2018-08-10T12:30:16.788Z,34.20
2018-08-10T12:32:48.624Z,35.10
2018-08-10T12:35:20.543Z,35.90
2018-08-10T12:37:52.340Z,36.20
2018-08-10T12:40:24.184Z,36.60
2018-08-10T12:42:55.984Z,36.80
2018-08-10T12:45:27.792Z,36.90
2018-08-10T12:47:59.533Z,36.80
2018-08-10T12:50:31.389Z,36.70
2018-08-10T12:53:03.174Z,37.10
2018-08-10T12:55:34.814Z,36.40
2018-08-10T12:58:06.907Z,36.80
2018-08-10T13:00:38.718Z,35.50
2018-08-10T13:03:10.406Z,35.70
2018-08-10T13:05:42.160Z,36.10
2018-08-10T13:08:14.005Z,35.60
2018-08-10T13:10:45.854Z,35.60
2018-08-10T13:13:17.763Z,36.10
2018-08-10T13:15:49.497Z,36.10
2018-08-10T13:18:21.340Z,36.40
2018-08-10T13:20:53.252Z,35.30
2018-08-10T13:23:25.002Z,34.10
2018-08-10T13:25:56.918Z,34.60
2018-08-10T13:28:28.589Z,33.40
2018-08-10T13:31:00.471Z,31.70
2018-08-10T13:33:32.422Z,32.70
2018-08-10T13:36:04.368Z,32.60
2018-08-10T13:38:36.133Z,32.10
2018-08-10T13:41:08.036Z,33.40
2018-08-10T13:43:39.820Z,33.20
2018-08-10T13:46:11.657Z,33.50
2018-08-10T13:48:43.406Z,34.10
2018-08-10T13:51:15.252Z,33.40
2018-08-10T13:53:47.086Z,33.90
2018-08-10T13:56:19.001Z,34.60
2018-08-10T13:58:50.837Z,34.20
2018-08-10T14:01:22.615Z,34.00
2018-08-10T14:03:54.521Z,33.50
2018-08-10T14:06:26.338Z,34.10
2018-08-10T14:08:58.188Z,32.30
2018-08-10T14:11:30.187Z,31.30
2018-08-10T14:14:02.194Z,31.00
2018-08-10T14:16:34.063Z,31.30
2018-08-10T14:19:05.885Z,30.50
2018-08-10T14:21:37.815Z,30.90
2018-08-10T14:24:09.733Z,31.00
2018-08-10T14:26:41.749Z,30.60
2018-08-10T14:29:13.676Z,30.80
2018-08-10T14:31:45.457Z,30.70
2018-08-10T14:34:17.488Z,30.70
2018-08-10T14:36:49.342Z,30.60
2018-08-10T14:39:21.245Z,30.50
2018-08-10T14:41:53.026Z,31.10
2018-08-10T14:44:24.928Z,31.40
2018-08-10T14:46:56.847Z,31.10
2018-08-10T14:49:28.786Z,30.80
2018-08-10T14:52:00.663Z,31.20
2018-08-10T14:54:32.372Z,31.50
2018-08-10T14:57:04.350Z,31.60
2018-08-10T14:59:36.299Z,31.60
2018-08-10T15:02:08.493Z,31.00
2018-08-10T15:04:40.481Z,31.40
2018-08-10T15:07:12.206Z,32.00
2018-08-10T15:09:44.064Z,31.80
2018-08-10T15:12:15.969Z,32.30
2018-08-10T15:14:47.914Z,32.60
2018-08-10T15:17:19.891Z,32.70
2018-08-10T15:19:51.604Z,32.80
2018-08-10T15:22:23.278Z,32.30
2018-08-10T15:24:55.118Z,32.70
2018-08-10T15:27:26.930Z,32.00
2018-08-10T15:29:58.711Z,32.20
2018-08-10T15:32:30.621Z,31.90
2018-08-10T15:35:02.515Z,30.90
2018-08-10T15:37:34.265Z,30.50
2018-08-10T15:40:07.205Z,30.60
2018-08-10T15:42:39.202Z,31.20
2018-08-10T15:45:13.182Z,31.40
2018-08-10T15:47:45.676Z,31.50
2018-08-10T15:50:17.614Z,31.50
2018-08-10T15:52:49.508Z,32.00
2018-08-10T15:55:21.357Z,30.70
2018-08-10T15:57:53.364Z,30.20
2018-08-10T16:00:26.037Z,30.60
2018-08-10T16:02:57.901Z,30.60
2018-08-10T16:05:29.602Z,30.40
2018-08-10T16:08:01.374Z,30.10
2018-08-10T16:10:33.175Z,30.20
2018-08-10T16:13:04.944Z,30.50
2018-08-10T16:15:36.857Z,30.30
2018-08-10T16:18:08.892Z,30.50
2018-08-10T16:20:40.775Z,30.30
2018-08-10T16:23:12.687Z,30.40
2018-08-10T16:25:44.408Z,30.50
2018-08-10T16:28:16.198Z,30.40
2018-08-10T16:30:48.119Z,30.40
2018-08-10T16:33:19.985Z,30.90
2018-08-10T16:35:51.654Z,31.00
2018-08-10T16:38:23.416Z,31.10
2018-08-10T16:40:55.357Z,31.30
2018-08-10T16:43:27.058Z,31.00
2018-08-10T16:45:59.816Z,30.70
2018-08-10T16:48:31.962Z,31.00
2018-08-10T16:51:03.981Z,31.10
2018-08-10T16:53:35.789Z,31.40
2018-08-10T16:56:07.650Z,31.30
2018-08-10T16:58:39.669Z,31.70
2018-08-10T17:01:11.613Z,31.70
2018-08-10T17:03:43.491Z,32.00
2018-08-10T17:06:16.027Z,31.70
2018-08-10T17:08:47.827Z,32.00
2018-08-10T17:11:19.678Z,32.00
2018-08-10T17:13:51.604Z,32.40
2018-08-10T17:16:23.588Z,32.30
2018-08-10T17:18:55.238Z,32.20
2018-08-10T17:21:27.004Z,32.60
2018-08-10T17:23:58.851Z,32.70
2018-08-10T17:26:30.628Z,32.80
2018-08-10T17:29:02.388Z,32.40
2018-08-10T17:31:34.312Z,33.00
2018-08-10T17:34:06.285Z,33.30
2018-08-10T17:36:38.105Z,33.60
2018-08-10T17:39:13.709Z,33.70
2018-08-10T17:41:45.715Z,34.10
2018-08-10T17:44:17.637Z,33.90
2018-08-10T17:46:49.599Z,34.00
2018-08-10T17:49:21.384Z,33.80
2018-08-10T17:51:53.234Z,33.90
2018-08-10T17:54:25.120Z,34.10
2018-08-10T17:56:56.929Z,34.40
2018-08-10T17:59:28.722Z,34.70
2018-08-10T18:02:00.558Z,34.90
2018-08-10T18:04:32.360Z,35.00
2018-08-10T18:07:04.200Z,35.50
2018-08-10T18:09:36.082Z,35.90
2018-08-10T18:12:08.057Z,36.30
2018-08-10T18:14:39.831Z,36.80
2018-08-10T18:17:11.710Z,37.00
2018-08-10T18:19:43.581Z,37.90
2018-08-10T18:22:15.264Z,38.20
2018-08-10T18:24:47.025Z,38.20
2018-08-10T18:27:18.978Z,38.70
2018-08-10T18:29:50.860Z,39.00
2018-08-10T18:32:22.724Z,39.30
2018-08-10T18:34:54.459Z,39.80
2018-08-10T18:37:26.281Z,40.70
2018-08-10T18:39:58.209Z,41.50
2018-08-10T18:42:30.226Z,41.90
2018-08-10T18:45:02.093Z,42.60
2018-08-10T18:47:33.879Z,42.60
2018-08-10T18:50:05.656Z,41.70
2018-08-10T18:52:37.786Z,42.30
2018-08-10T18:55:11.018Z,43.30
2018-08-10T18:57:42.845Z,43.50
2018-08-10T19:00:18.897Z,44.00
2018-08-10T19:02:50.773Z,44.40
2018-08-10T19:05:22.721Z,44.20
2018-08-10T19:07:54.629Z,44.70
2018-08-10T19:10:27.769Z,44.70
2018-08-10T19:12:59.459Z,44.80
2018-08-10T19:15:31.385Z,45.30
2018-08-10T19:18:03.201Z,45.60
2018-08-10T19:20:34.951Z,46.20
2018-08-10T19:23:06.882Z,47.20
2018-08-10T19:25:38.786Z,47.70
2018-08-10T19:28:10.544Z,45.90
2018-08-10T19:30:42.281Z,44.30
2018-08-10T19:33:14.108Z,43.50
2018-08-10T19:35:45.893Z,42.10
2018-08-10T19:38:17.800Z,42.20
2018-08-10T19:40:49.587Z,42.90
2018-08-10T19:43:21.507Z,43.60
2018-08-10T19:45:53.520Z,45.50
2018-08-10T19:48:25.484Z,46.40
2018-08-10T19:50:57.267Z,47.50
2018-08-10T19:53:29.049Z,50.20
2018-08-10T19:56:00.899Z,50.30
2018-08-10T19:58:32.780Z,50.50
2018-08-10T20:01:04.686Z,51.30
2018-08-10T20:03:36.599Z,51.70
2018-08-10T20:06:08.514Z,51.80
2018-08-10T20:08:40.524Z,52.10
2018-08-10T20:11:12.393Z,53.10
2018-08-10T20:13:44.008Z,53.00
2018-08-10T20:16:15.956Z,53.70
2018-08-10T20:18:47.631Z,53.30
2018-08-10T20:21:19.401Z,53.20
2018-08-10T20:23:51.330Z,53.40
2018-08-10T20:26:23.225Z,53.60
2018-08-10T20:28:54.993Z,53.80
2018-08-10T20:31:26.765Z,54.00
2018-08-10T20:33:58.396Z,54.00
2018-08-10T20:36:30.188Z,54.10
2018-08-10T20:39:02.044Z,54.40
2018-08-10T20:41:33.904Z,54.60
2018-08-10T20:44:05.817Z,54.80
2018-08-10T20:46:38.602Z,55.60
2018-08-10T20:49:10.590Z,55.30
2018-08-10T20:51:42.495Z,55.20
2018-08-10T20:54:14.498Z,55.50
2018-08-10T20:56:46.357Z,55.60
2018-08-10T20:59:18.136Z,55.70
2018-08-10T21:01:50.026Z,55.60
2018-08-10T21:04:21.803Z,55.90
2018-08-10T21:06:53.616Z,56.30
2018-08-10T21:09:25.377Z,56.30
2018-08-10T21:11:57.147Z,56.40
2018-08-10T21:14:28.886Z,56.80
2018-08-10T21:17:00.753Z,57.00
2018-08-10T21:19:32.646Z,57.00
2018-08-10T21:22:04.387Z,57.20
2018-08-10T21:24:36.239Z,57.80
2018-08-10T21:27:08.112Z,57.40
2018-08-10T21:29:40.147Z,57.40
2018-08-10T21:32:11.941Z,57.60
2018-08-10T21:34:43.679Z,58.00
2018-08-10T21:37:15.528Z,58.40
2018-08-10T21:39:47.481Z,58.70
2018-08-10T21:42:19.358Z,59.00
2018-08-10T21:44:51.013Z,59.60
2018-08-10T21:47:22.648Z,59.90
2018-08-10T21:49:54.328Z,60.30
2018-08-10T21:52:26.201Z,61.10
2018-08-10T21:54:58.044Z,61.30
2018-08-10T21:57:29.849Z,61.40
2018-08-10T22:00:01.576Z,62.00
2018-08-10T22:02:33.541Z,62.20
2018-08-10T22:05:05.368Z,62.20
2018-08-10T22:07:37.183Z,62.60
2018-08-10T22:10:09.094Z,62.70
2018-08-10T22:12:45.941Z,62.90
2018-08-10T22:15:23.008Z,62.90
2018-08-10T22:17:59.793Z,63.10
2018-08-10T22:20:31.442Z,63.30
2018-08-10T22:23:03.291Z,63.70
2018-08-10T22:25:35.110Z,63.40
2018-08-10T22:28:07.115Z,63.50
2018-08-10T22:30:38.843Z,63.60
2018-08-10T22:33:10.730Z,63.90
2018-08-10T22:35:42.965Z,64.20
2018-08-10T22:38:15.053Z,64.40
2018-08-10T22:40:46.809Z,64.40
2018-08-10T22:43:18.590Z,64.60
2018-08-10T22:45:50.518Z,64.80
2018-08-10T22:48:22.190Z,64.80
2018-08-10T22:50:54.069Z,64.90
2018-08-10T22:53:25.818Z,65.10
2018-08-10T22:55:57.487Z,65.30
2018-08-10T22:58:29.238Z,65.60
2018-08-10T23:01:00.981Z,65.80
2018-08-10T23:03:32.844Z,66.30
2018-08-10T23:06:04.749Z,66.30
2018-08-10T23:08:36.607Z,66.50
2018-08-10T23:11:08.384Z,67.50
2018-08-10T23:13:40.381Z,67.00
2018-08-10T23:16:12.277Z,66.90
2018-08-10T23:18:44.253Z,67.10
2018-08-10T23:21:16.030Z,67.20
2018-08-10T23:23:48.025Z,67.40
2018-08-10T23:26:19.992Z,67.50
2018-08-10T23:28:51.770Z,67.60
2018-08-10T23:31:23.537Z,67.60
2018-08-10T23:33:55.419Z,67.70
2018-08-10T23:36:27.141Z,67.80
2018-08-10T23:38:58.813Z,67.70
2018-08-10T23:41:30.593Z,67.60
2018-08-10T23:44:02.340Z,68.60
2018-08-10T23:46:34.293Z,67.90
2018-08-10T23:49:06.357Z,67.80
2018-08-10T23:51:38.292Z,67.90
2018-08-10T23:54:10.101Z,68.00
2018-08-10T23:56:41.890Z,67.80
2018-08-10T23:59:13.933Z,68.00
